Time;durP1;ratioP1;P1;durP2;ratioP2;P2;SDS_P1;SDS_P2;PMS_P1;PMS_P2;Temp;Humidity;BMP_temperature;BMP_pressure;BME280_temperature;BME280_humidity;BME280_pressure;Samples;Min_cycle;Max_cycle;Signal;HPM_P1;HPM_P2
2022/08/12 00:43:23;;;;;;;1.10;0.90;;;15.10;94.40;;;;;;5081798;28;20505;-86
2022/08/12 00:48:36;;;;;;;0.90;0.60;;;15.10;94.30;;;;;;5082105;28;20955;-83
2022/08/12 00:51:04;;;;;;;0.70;0.60;;;15.00;94.40;;;;;;5080901;28;20470;-85
2022/08/12 00:53:34;;;;;;;1.80;0.80;;;14.90;94.80;;;;;;5081144;28;20541;-83
2022/08/12 00:56:02;;;;;;;1.13;0.80;;;14.90;94.80;;;;;;5077852;28;21048;-85
2022/08/12 00:58:31;;;;;;;1.53;0.60;;;14.90;94.80;;;;;;5085394;28;20540;-84
2022/08/12 01:01:04;;;;;;;0.80;0.80;;;14.80;96.00;;;;;;5089461;28;20463;-84
2022/08/12 01:11:52;;;;;;;2.10;0.70;;;14.40;97.20;;;;;;5070823;28;21191;-85
2022/08/12 01:14:22;;;;;;;0.67;0.67;;;14.30;97.50;;;;;;5082633;28;20473;-84
2022/08/12 01:16:51;;;;;;;3.63;0.80;;;14.30;97.40;;;;;;5083313;28;20462;-83
2022/08/12 01:19:20;;;;;;;0.80;0.60;;;14.30;98.50;;;;;;5070169;28;20555;-83
2022/08/12 01:22:10;;;;;;;2.60;0.80;;;14.50;98.00;;;;;;5079104;28;20473;-83
2022/08/12 01:24:53;;;;;;;3.33;0.57;;;14.50;97.80;;;;;;5072345;28;20520;-82
2022/08/12 01:27:23;;;;;;;1.43;0.70;;;14.50;98.50;;;;;;5072540;28;21008;-83
2022/08/12 01:29:52;;;;;;;0.70;0.63;;;14.40;97.60;;;;;;5080914;28;21016;-84
2022/08/12 01:32:22;;;;;;;0.73;0.67;;;14.30;97.60;;;;;;5073790;28;20467;-83
2022/08/12 01:35:01;;;;;;;1.43;0.87;;;14.40;99.50;;;;;;5072623;28;20538;-83
2022/08/12 01:37:31;;;;;;;0.80;0.80;;;14.40;98.40;;;;;;5088183;28;21022;-84
2022/08/12 01:40:02;;;;;;;1.37;0.90;;;14.40;98.40;;;;;;5083134;28;21004;-82
2022/08/12 01:42:34;;;;;;;1.30;0.80;;;14.30;97.80;;;;;;5085504;28;21025;-82
2022/08/12 01:45:02;;;;;;;0.90;0.80;;;14.40;97.40;;;;;;5083432;28;20487;-82
2022/08/12 01:47:56;;;;;;;0.80;0.57;;;14.40;96.90;;;;;;5083860;28;20462;-82
2022/08/12 01:50:32;;;;;;;0.70;0.60;;;14.50;96.50;;;;;;5082152;28;20457;-82
2022/08/12 01:53:05;;;;;;;0.90;0.80;;;14.50;96.40;;;;;;5081623;28;20478;-83
2022/08/12 01:55:37;;;;;;;1.63;0.70;;;14.50;96.50;;;;;;5081520;28;20457;-82
2022/08/12 01:58:18;;;;;;;0.70;0.70;;;14.60;96.80;;;;;;5079348;28;20465;-83
2022/08/12 02:00:57;;;;;;;0.97;0.70;;;14.60;96.60;;;;;;5069226;28;20472;-82
2022/08/12 02:12:40;;;;;;;1.20;0.60;;;15.10;95.00;;;;;;5085547;28;20459;-84
2022/08/12 02:15:21;;;;;;;1.10;0.60;;;15.10;94.70;;;;;;5078391;28;20881;-84
2022/08/12 02:18:14;;;;;;;1.10;0.70;;;15.00;95.00;;;;;;5082048;28;21030;-84
2022/08/12 02:20:49;;;;;;;2.60;0.73;;;14.90;95.60;;;;;;5065308;28;20468;-84
2022/08/12 02:23:19;;;;;;;1.60;0.97;;;14.80;95.60;;;;;;5088292;28;20461;-84
2022/08/12 02:25:47;;;;;;;1.20;0.67;;;14.80;96.40;;;;;;5087996;28;20487;-84
2022/08/12 02:28:16;;;;;;;3.27;0.60;;;14.70;96.10;;;;;;5079580;28;20464;-81
2022/08/12 02:30:43;;;;;;;0.60;0.50;;;14.70;96.30;;;;;;5070425;28;20458;-81
2022/08/12 02:33:11;;;;;;;1.20;0.60;;;14.90;95.80;;;;;;5083683;28;20451;-85
2022/08/12 02:35:39;;;;;;;0.90;0.70;;;14.80;95.70;;;;;;5078409;28;20474;-84
2022/08/12 02:38:11;;;;;;;2.90;1.07;;;14.70;96.10;;;;;;5076329;28;20971;-82
2022/08/12 02:40:41;;;;;;;1.37;0.67;;;14.70;96.90;;;;;;5087874;28;20451;-82
2022/08/12 02:43:19;;;;;;;1.83;0.80;;;14.50;97.20;;;;;;5082770;28;20502;-83
2022/08/12 02:45:50;;;;;;;1.07;0.73;;;14.30;97.30;;;;;;5072128;28;20486;-84
2022/08/12 02:48:24;;;;;;;2.07;0.70;;;14.40;97.30;;;;;;5077128;28;20490;-81
2022/08/12 02:50:53;;;;;;;1.30;0.70;;;14.30;97.10;;;;;;5081912;28;20948;-82
2022/08/12 02:53:20;;;;;;;1.23;0.50;;;14.30;97.10;;;;;;5072970;28;20464;-83
2022/08/12 02:55:48;;;;;;;0.70;0.60;;;14.30;97.30;;;;;;5075197;28;20511;-82
2022/08/12 02:58:17;;;;;;;4.17;1.20;;;14.30;97.50;;;;;;5077309;28;20745;-82
2022/08/12 03:00:44;;;;;;;0.80;0.70;;;14.30;97.30;;;;;;5079910;28;20465;-83
2022/08/12 03:03:13;;;;;;;1.30;0.53;;;14.20;97.80;;;;;;5078832;28;20557;-81
2022/08/12 03:05:47;;;;;;;0.80;0.50;;;14.30;97.50;;;;;;5070206;28;20485;-84
2022/08/12 03:08:19;;;;;;;0.70;0.70;;;14.20;97.60;;;;;;5087202;28;20465;-82
2022/08/12 03:10:49;;;;;;;3.07;0.80;;;14.30;97.60;;;;;;5085881;28;20546;-82
2022/08/12 03:13:25;;;;;;;2.70;0.70;;;14.40;97.50;;;;;;5079348;28;20506;-82
2022/08/12 03:15:54;;;;;;;0.70;0.70;;;14.30;97.40;;;;;;5074899;28;20480;-82
2022/08/12 03:18:27;;;;;;;0.87;0.70;;;14.30;97.70;;;;;;5081120;28;20573;-82
2022/08/12 03:20:55;;;;;;;0.73;0.73;;;14.20;98.20;;;;;;5080536;28;20545;-84
2022/08/12 03:23:23;;;;;;;1.27;0.70;;;14.10;98.50;;;;;;5071434;28;20480;-84
2022/08/12 03:25:54;;;;;;;1.00;0.70;;;14.10;98.80;;;;;;5077292;28;21205;-81
2022/08/12 03:31:09;;;;;;;1.03;0.83;;;14.00;99.60;;;;;;5085585;28;20461;-84
2022/08/12 03:33:38;;;;;;;0.97;0.70;;;14.00;99.70;;;;;;5081652;28;21040;-81
2022/08/12 03:36:07;;;;;;;1.23;0.70;;;13.90;99.90;;;;;;5080098;28;20471;-84
2022/08/12 03:38:37;;;;;;;2.40;1.20;;;13.80;99.90;;;;;;5077303;28;21016;-85
2022/08/12 04:00:38;;;;;;;0.87;0.87;;;14.10;99.90;;;;;;5076321;28;20448;-86
2022/08/12 04:03:50;;;;;;;1.17;0.70;;;14.00;99.90;;;;;;5081641;28;20536;-84
2022/08/12 04:05:52;;;;;;;0.70;0.70;;;14.00;99.90;;;;;;5093032;28;20514;-84
2022/08/12 04:08:22;;;;;;;1.07;0.90;;;14.00;99.90;;;;;;5085182;28;20463;-83
2022/08/12 04:13:34;;;;;;;1.50;1.20;;;14.20;99.90;;;;;;5084888;28;20591;-85
2022/08/12 04:16:06;;;;;;;1.33;1.10;;;14.10;99.90;;;;;;5081854;28;21305;-84
2022/08/12 04:18:34;;;;;;;1.13;0.90;;;14.20;99.90;;;;;;5082197;28;20465;-85
2022/08/12 04:21:01;;;;;;;2.67;1.40;;;14.20;99.90;;;;;;5079138;28;20473;-86
2022/08/12 04:23:30;;;;;;;0.93;0.77;;;14.00;99.90;;;;;;5080546;28;20501;-87
2022/08/12 04:25:57;;;;;;;2.83;0.80;;;13.90;99.90;;;;;;5072593;28;20544;-85
2022/08/12 04:28:28;;;;;;;1.00;1.00;;;14.00;99.90;;;;;;5078315;28;20509;-84
2022/08/12 04:30:56;;;;;;;0.80;0.70;;;13.90;99.90;;;;;;5077108;28;20470;-85
2022/08/12 04:33:25;;;;;;;2.17;0.70;;;13.90;99.90;;;;;;5073367;28;20456;-85
2022/08/12 04:35:53;;;;;;;1.57;1.33;;;13.80;99.90;;;;;;5076777;28;20979;-85
2022/08/12 04:38:21;;;;;;;1.93;1.00;;;13.80;99.90;;;;;;5080565;28;20470;-84
2022/08/12 04:40:48;;;;;;;7.50;1.07;;;13.70;99.90;;;;;;5077607;28;20467;-84
2022/08/12 04:43:16;;;;;;;1.23;0.90;;;13.70;99.90;;;;;;5074205;28;20567;-84
2022/08/12 04:45:43;;;;;;;2.70;0.90;;;13.70;99.90;;;;;;5068413;28;20841;-84
2022/08/12 04:48:10;;;;;;;2.13;1.30;;;13.70;99.90;;;;;;5066766;28;21239;-87
2022/08/12 04:50:39;;;;;;;1.27;0.90;;;13.80;99.90;;;;;;5066800;28;20501;-85
2022/08/12 04:53:08;;;;;;;1.13;0.80;;;13.90;99.90;;;;;;5068679;28;20465;-86
2022/08/12 04:55:36;;;;;;;0.97;0.80;;;13.90;99.90;;;;;;5087064;28;20457;-86
2022/08/12 04:58:03;;;;;;;1.50;1.00;;;14.00;99.90;;;;;;5077050;28;20509;-82
2022/08/12 05:00:31;;;;;;;1.53;1.20;;;14.10;99.90;;;;;;5082408;28;20798;-83
2022/08/12 05:02:59;;;;;;;2.30;0.90;;;14.20;99.90;;;;;;5088392;28;20613;-82
2022/08/12 05:05:26;;;;;;;1.67;0.90;;;14.20;99.90;;;;;;5084693;28;20479;-84
2022/08/12 05:07:55;;;;;;;1.13;0.70;;;14.20;99.90;;;;;;5076739;28;20471;-84
2022/08/12 05:10:22;;;;;;;0.80;0.80;;;14.10;99.90;;;;;;5075353;28;20976;-83
2022/08/12 05:12:55;;;;;;;3.43;0.90;;;14.10;99.90;;;;;;5071005;28;20491;-83
2022/08/12 05:15:22;;;;;;;1.17;1.00;;;14.10;99.90;;;;;;5066516;28;20465;-82
2022/08/12 05:17:49;;;;;;;0.90;0.70;;;14.20;99.90;;;;;;5070179;28;21225;-85
2022/08/12 05:20:18;;;;;;;1.23;1.00;;;14.30;99.90;;;;;;5075840;28;20529;-84
2022/08/12 05:22:45;;;;;;;0.80;0.70;;;14.30;99.90;;;;;;5065710;28;20464;-82
2022/08/12 05:25:15;;;;;;;2.37;1.23;;;14.40;99.90;;;;;;5073098;28;20850;-84
2022/08/12 05:27:44;;;;;;;2.67;0.97;;;14.30;99.90;;;;;;5075650;28;20463;-84
2022/08/12 05:30:21;;;;;;;0.67;0.67;;;14.50;99.90;;;;;;5072914;28;20470;-87
2022/08/12 05:32:49;;;;;;;0.90;0.90;;;14.50;99.90;;;;;;5079757;28;20469;-83
2022/08/12 05:35:16;;;;;;;0.90;0.90;;;14.70;99.90;;;;;;5080515;28;20538;-84
2022/08/12 05:37:43;;;;;;;0.70;0.70;;;14.70;99.90;;;;;;5071986;28;21166;-83
2022/08/12 05:40:13;;;;;;;0.60;0.60;;;14.70;99.90;;;;;;5071628;28;20466;-83
2022/08/12 05:42:40;;;;;;;2.17;1.17;;;14.80;99.90;;;;;;5067982;28;20483;-84
2022/08/12 05:45:08;;;;;;;1.73;0.63;;;14.90;99.90;;;;;;5067614;28;20540;-83
2022/08/12 05:47:35;;;;;;;2.13;0.70;;;14.90;99.90;;;;;;5076824;28;20511;-83
2022/08/12 05:50:03;;;;;;;0.70;0.60;;;15.00;99.90;;;;;;5066090;28;20723;-82
2022/08/12 05:52:31;;;;;;;0.90;0.70;;;14.90;99.90;;;;;;5072818;28;20475;-83
2022/08/12 05:54:58;;;;;;;0.83;0.73;;;14.90;99.90;;;;;;5069888;28;20449;-84
2022/08/12 05:57:26;;;;;;;1.03;0.80;;;14.80;99.90;;;;;;5063412;28;20478;-83
2022/08/12 05:59:53;;;;;;;1.97;1.00;;;14.90;99.90;;;;;;5064943;28;21045;-85
2022/08/12 06:02:21;;;;;;;1.13;0.90;;;14.90;99.90;;;;;;5068677;28;20530;-83
2022/08/12 06:04:48;;;;;;;0.90;0.80;;;14.90;99.90;;;;;;5069276;28;20987;-83
2022/08/12 06:07:15;;;;;;;0.70;0.60;;;14.80;99.90;;;;;;5073229;28;20492;-83
2022/08/12 06:09:42;;;;;;;3.53;0.63;;;14.90;99.90;;;;;;5079046;28;20461;-86
2022/08/12 06:12:10;;;;;;;1.13;0.80;;;14.90;99.90;;;;;;5068165;28;20548;-84
2022/08/12 06:14:38;;;;;;;1.70;0.87;;;15.10;99.90;;;;;;5074502;28;20484;-86
2022/08/12 06:17:07;;;;;;;1.60;0.80;;;15.30;99.90;;;;;;5067943;28;20499;-85
2022/08/12 06:19:34;;;;;;;1.83;0.60;;;15.40;99.90;;;;;;5067674;28;20541;-84
2022/08/12 06:22:01;;;;;;;1.87;0.60;;;15.60;99.90;;;;;;5073899;28;20456;-85
2022/08/12 06:24:28;;;;;;;0.70;0.63;;;16.00;99.90;;;;;;5075014;28;20468;-83
2022/08/12 06:26:58;;;;;;;0.57;0.50;;;16.40;99.20;;;;;;5069397;28;20485;-84
2022/08/12 06:29:25;;;;;;;1.03;0.50;;;16.60;97.50;;;;;;5067228;28;21005;-83
2022/08/12 06:31:54;;;;;;;1.00;0.70;;;16.90;98.00;;;;;;5067700;28;20467;-83
2022/08/12 06:34:21;;;;;;;0.50;0.40;;;17.10;96.90;;;;;;5074084;28;20473;-85
2022/08/12 06:36:48;;;;;;;0.50;0.50;;;17.40;97.30;;;;;;5067159;28;20519;-83
2022/08/12 06:39:15;;;;;;;1.17;0.83;;;17.70;96.30;;;;;;5079354;28;20985;-83
2022/08/12 06:44:27;;;;;;;2.80;0.57;;;17.80;94.80;;;;;;5075330;28;20480;-83
2022/08/12 06:46:56;;;;;;;0.90;0.60;;;17.90;95.00;;;;;;5067992;28;20498;-85
2022/08/12 06:49:23;;;;;;;0.50;0.40;;;17.90;94.50;;;;;;5074867;28;20517;-84
2022/08/12 06:51:54;;;;;;;0.93;0.70;;;18.20;94.60;;;;;;5071499;28;20468;-85
2022/08/12 06:54:23;;;;;;;0.60;0.50;;;18.70;94.30;;;;;;5066276;28;20486;-83
2022/08/12 06:56:51;;;;;;;0.57;0.50;;;18.60;93.10;;;;;;5076678;28;20467;-84
2022/08/12 06:59:20;;;;;;;5.90;0.90;;;18.70;93.30;;;;;;5070865;28;21131;-84
2022/08/12 07:01:47;;;;;;;1.87;0.60;;;18.50;92.50;;;;;;5073604;28;20456;-83
2022/08/12 07:04:15;;;;;;;0.80;0.40;;;18.70;92.50;;;;;;5070092;28;20494;-87
2022/08/12 07:06:43;;;;;;;0.60;0.50;;;18.70;93.00;;;;;;5082315;28;20491;-85
2022/08/12 07:09:10;;;;;;;0.87;0.83;;;18.70;92.50;;;;;;5078134;28;20456;-85
2022/08/12 07:11:43;;;;;;;1.33;0.60;;;18.70;92.30;;;;;;5086986;28;20465;-85
2022/08/12 07:14:10;;;;;;;0.57;0.57;;;18.90;92.50;;;;;;5069190;28;20455;-83
2022/08/12 07:17:00;;;;;;;0.50;0.40;;;19.20;92.90;;;;;;5072392;28;20467;-85
2022/08/12 07:19:29;;;;;;;0.70;0.60;;;19.30;91.70;;;;;;5071631;28;20467;-87
2022/08/12 07:22:00;;;;;;;1.17;0.57;;;19.40;92.00;;;;;;5082188;28;20459;-84
2022/08/12 07:24:27;;;;;;;1.87;0.40;;;19.50;90.90;;;;;;5070017;28;20466;-84
2022/08/12 07:26:54;;;;;;;0.60;0.50;;;19.10;91.70;;;;;;5073054;28;21037;-84
2022/08/12 07:29:21;;;;;;;0.60;0.60;;;19.30;91.90;;;;;;5065953;28;20501;-88
2022/08/12 07:31:48;;;;;;;1.13;0.50;;;19.80;91.70;;;;;;5066986;28;21065;-87
2022/08/12 07:34:15;;;;;;;0.53;0.50;;;20.10;91.00;;;;;;5072955;28;20464;-85
2022/08/12 07:36:46;;;;;;;0.50;0.47;;;20.50;90.30;;;;;;5074924;28;20478;-86
2022/08/12 07:39:13;;;;;;;0.60;0.50;;;20.80;89.30;;;;;;5067493;28;20536;-88
2022/08/12 07:41:40;;;;;;;7.40;1.63;;;20.80;87.80;;;;;;5068140;28;20523;-88
2022/08/12 07:44:09;;;;;;;3.47;1.40;;;21.00;88.20;;;;;;5075652;28;20483;-85
2022/08/12 07:46:39;;;;;;;0.60;0.50;;;21.20;89.10;;;;;;5075373;28;20489;-86
2022/08/12 07:49:09;;;;;;;0.60;0.53;;;21.30;87.10;;;;;;5074877;28;21063;-85
2022/08/12 07:51:37;;;;;;;1.07;0.60;;;21.20;84.50;;;;;;5074961;28;20467;-85
2022/08/12 07:54:08;;;;;;;1.07;0.67;;;21.40;87.60;;;;;;5069307;28;20840;-84
2022/08/12 07:56:37;;;;;;;0.90;0.50;;;21.40;85.40;;;;;;5071768;28;20827;-86
2022/08/12 07:59:05;;;;;;;1.13;1.03;;;21.40;85.60;;;;;;5082723;28;20510;-85
2022/08/12 08:01:32;;;;;;;1.00;0.53;;;21.60;88.60;;;;;;5078153;28;20445;-86
2022/08/12 08:06:44;;;;;;;0.50;0.30;;;21.70;86.50;;;;;;5074462;28;20554;-86
2022/08/12 08:09:14;;;;;;;0.60;0.60;;;21.70;84.20;;;;;;5082338;28;20831;-85
2022/08/12 08:14:27;;;;;;;0.90;0.50;;;21.60;83.40;;;;;;5078047;28;20814;-85
2022/08/12 08:16:56;;;;;;;1.00;0.70;;;21.30;84.90;;;;;;5066807;28;20470;-86
2022/08/12 08:19:24;;;;;;;0.50;0.50;;;21.60;84.00;;;;;;5072604;28;21009;-86
2022/08/12 08:21:52;;;;;;;0.70;0.50;;;21.80;83.30;;;;;;5071189;28;20482;-83
2022/08/12 08:24:23;;;;;;;1.43;0.50;;;22.10;83.90;;;;;;5075300;28;20490;-83
2022/08/12 08:26:53;;;;;;;0.50;0.40;;;21.60;79.90;;;;;;5068890;28;20482;-86
2022/08/12 08:29:21;;;;;;;0.60;0.50;;;21.90;82.30;;;;;;5072845;28;20546;-86
2022/08/12 08:31:53;;;;;;;1.77;0.60;;;21.90;79.30;;;;;;5075484;28;20458;-84
2022/08/12 08:34:25;;;;;;;1.10;0.50;;;22.40;78.70;;;;;;5079216;28;20467;-85
2022/08/12 08:36:52;;;;;;;0.60;0.60;;;22.00;77.50;;;;;;5069154;28;20525;-84
2022/08/12 08:39:20;;;;;;;0.50;0.50;;;22.00;79.10;;;;;;5062593;28;20479;-84
2022/08/12 08:44:36;;;;;;;1.60;0.50;;;22.70;79.70;;;;;;5069052;28;20450;-84
2022/08/12 08:47:04;;;;;;;0.60;0.60;;;22.90;77.80;;;;;;5069838;28;20495;-84
2022/08/12 08:49:31;;;;;;;1.10;0.70;;;22.90;76.60;;;;;;5069582;28;20496;-84
2022/08/12 08:51:58;;;;;;;0.63;0.63;;;22.60;76.30;;;;;;5067373;28;20921;-86
2022/08/12 08:54:30;;;;;;;0.60;0.50;;;22.40;76.70;;;;;;5066302;28;20463;-84
2022/08/12 08:56:57;;;;;;;0.60;0.50;;;21.80;78.60;;;;;;5074897;28;20549;-83
2022/08/12 08:59:24;;;;;;;0.50;0.50;;;21.80;77.30;;;;;;5071398;28;20495;-84
2022/08/12 09:01:51;;;;;;;0.60;0.40;;;21.80;79.90;;;;;;5067715;28;20514;-84
2022/08/12 09:04:22;;;;;;;0.50;0.50;;;22.00;78.30;;;;;;5070665;28;20499;-86
2022/08/12 09:06:57;;;;;;;1.00;0.70;;;22.40;77.50;;;;;;5075251;28;20487;-86
2022/08/12 09:09:25;;;;;;;2.30;0.60;;;22.40;75.40;;;;;;5072820;28;21438;-84
2022/08/12 09:14:39;;;;;;;0.57;0.50;;;22.80;74.90;;;;;;5082738;28;20591;-85
2022/08/12 09:17:06;;;;;;;0.90;0.60;;;23.00;73.70;;;;;;5071400;28;20468;-84
2022/08/12 09:19:33;;;;;;;0.70;0.50;;;23.40;75.80;;;;;;5075134;28;20463;-85
2022/08/12 09:22:01;;;;;;;0.50;0.50;;;23.80;72.40;;;;;;5070451;28;20484;-85
2022/08/12 09:24:29;;;;;;;0.83;0.83;;;23.80;73.50;;;;;;5067459;28;20459;-89
2022/08/12 09:26:56;;;;;;;1.13;0.50;;;23.40;70.80;;;;;;5069789;28;20483;-85
2022/08/12 09:29:23;;;;;;;0.60;0.50;;;23.60;73.50;;;;;;5072872;28;20534;-85
2022/08/12 09:31:51;;;;;;;0.50;0.40;;;23.30;71.10;;;;;;5073724;28;20588;-84
2022/08/12 09:34:18;;;;;;;0.73;0.50;;;22.90;68.30;;;;;;5065474;28;21019;-88
2022/08/12 09:36:45;;;;;;;0.53;0.50;;;22.80;67.90;;;;;;5066863;28;20839;-85
2022/08/12 09:39:12;;;;;;;0.60;0.43;;;23.00;69.60;;;;;;5076424;28;20447;-84
2022/08/12 09:41:42;;;;;;;0.60;0.60;;;23.00;72.70;;;;;;5076695;28;20469;-85
2022/08/12 09:46:55;;;;;;;0.50;0.40;;;23.30;70.30;;;;;;5069157;28;20526;-88
2022/08/12 09:49:23;;;;;;;0.67;0.60;;;23.30;69.60;;;;;;5080313;28;20459;-84
2022/08/12 09:51:50;;;;;;;3.10;0.60;;;23.30;71.40;;;;;;5086888;28;20447;-86
2022/08/12 09:54:22;;;;;;;0.77;0.50;;;23.30;72.30;;;;;;5090693;28;20529;-85
2022/08/12 09:56:52;;;;;;;0.70;0.50;;;23.30;71.70;;;;;;5079576;28;20469;-84
2022/08/12 09:59:19;;;;;;;0.53;0.47;;;23.50;68.90;;;;;;5091881;28;20451;-88
2022/08/12 10:01:46;;;;;;;0.70;0.70;;;23.70;67.80;;;;;;5074470;28;20467;-85
2022/08/12 10:04:13;;;;;;;1.00;0.50;;;23.90;72.00;;;;;;5073446;28;20604;-85
2022/08/12 10:06:41;;;;;;;0.50;0.40;;;24.00;69.20;;;;;;5077019;28;20469;-85
2022/08/12 10:09:09;;;;;;;0.60;0.60;;;24.10;69.90;;;;;;5084328;28;20888;-85
2022/08/12 10:14:23;;;;;;;0.50;0.43;;;24.20;69.10;;;;;;5072350;28;20443;-88
2022/08/12 10:16:50;;;;;;;0.60;0.53;;;24.20;67.90;;;;;;5082159;28;20462;-85
2022/08/12 10:19:18;;;;;;;2.10;0.50;;;24.20;68.70;;;;;;5068633;28;20464;-85
2022/08/12 10:21:46;;;;;;;0.50;0.47;;;24.20;68.60;;;;;;5068993;28;20459;-85
2022/08/12 10:24:15;;;;;;;1.03;0.60;;;24.10;69.30;;;;;;5077978;28;20551;-86
2022/08/12 10:29:38;;;;;;;1.60;0.60;;;24.40;63.20;;;;;;5074225;28;20994;-86
2022/08/12 10:32:11;;;;;;;0.60;0.50;;;24.50;64.10;;;;;;5073962;28;20463;-88
2022/08/12 10:34:39;;;;;;;0.80;0.50;;;24.60;60.80;;;;;;5071978;28;20462;-85
2022/08/12 10:37:07;;;;;;;0.50;0.50;;;24.70;64.60;;;;;;5066943;28;20554;-88
2022/08/12 10:39:36;;;;;;;0.60;0.50;;;24.90;65.40;;;;;;5069675;28;20878;-85
2022/08/12 10:44:52;;;;;;;0.50;0.50;;;24.70;61.20;;;;;;5074671;28;20454;-85
2022/08/12 10:47:20;;;;;;;0.50;0.50;;;25.00;63.20;;;;;;5085517;28;20487;-85
2022/08/12 10:49:47;;;;;;;0.90;0.60;;;24.50;59.40;;;;;;5078167;28;21224;-85
2022/08/12 10:52:15;;;;;;;0.50;0.50;;;24.50;60.50;;;;;;5069419;28;20459;-86
2022/08/12 10:54:45;;;;;;;0.60;0.50;;;24.40;59.90;;;;;;5079823;28;20807;-86
2022/08/12 10:57:12;;;;;;;0.80;0.73;;;24.60;58.70;;;;;;5087710;28;20849;-89
2022/08/12 10:59:39;;;;;;;0.50;0.40;;;24.80;61.90;;;;;;5083391;28;20451;-86
2022/08/12 11:02:12;;;;;;;0.70;0.40;;;25.00;58.30;;;;;;5081164;28;20566;-85
2022/08/12 11:04:40;;;;;;;0.50;0.40;;;25.00;57.00;;;;;;5070899;28;20451;-87
2022/08/12 11:07:09;;;;;;;0.50;0.40;;;25.00;57.50;;;;;;5077552;28;20510;-85
2022/08/12 11:09:37;;;;;;;0.50;0.40;;;25.40;57.60;;;;;;5075580;28;20460;-85
2022/08/12 11:12:05;;;;;;;1.10;0.57;;;25.80;58.50;;;;;;5079479;28;20470;-84
2022/08/12 11:14:33;;;;;;;1.83;0.50;;;25.70;56.10;;;;;;5073861;28;20463;-86
2022/08/12 11:17:01;;;;;;;1.33;0.50;;;26.10;59.90;;;;;;5078390;28;20460;-88
2022/08/12 11:19:31;;;;;;;1.17;0.50;;;26.20;54.50;;;;;;5080390;28;20455;-85
2022/08/12 11:21:59;;;;;;;0.50;0.50;;;25.90;55.50;;;;;;5076960;28;20466;-84
2022/08/12 11:24:27;;;;;;;0.50;0.43;;;25.80;56.90;;;;;;5074218;28;20460;-88
2022/08/12 11:26:55;;;;;;;0.50;0.50;;;25.90;55.90;;;;;;5078355;28;20462;-88
2022/08/12 11:29:24;;;;;;;0.77;0.50;;;26.10;56.60;;;;;;5076611;28;20460;-86
2022/08/12 11:31:51;;;;;;;0.60;0.60;;;26.20;57.90;;;;;;5080548;28;20892;-86
2022/08/12 11:34:19;;;;;;;2.90;0.60;;;26.20;56.10;;;;;;5067643;28;21193;-85
2022/08/12 11:36:52;;;;;;;0.60;0.50;;;25.90;56.00;;;;;;5067571;28;20455;-89
2022/08/12 11:39:20;;;;;;;0.97;0.60;;;25.80;56.70;;;;;;5072423;28;20469;-85
2022/08/12 11:41:47;;;;;;;13.83;1.47;;;26.10;57.10;;;;;;5071127;28;20460;-85
2022/08/12 11:44:14;;;;;;;0.60;0.60;;;26.60;56.20;;;;;;5076335;28;20486;-88
2022/08/12 11:46:42;;;;;;;0.60;0.40;;;26.40;56.20;;;;;;5076066;28;20451;-85
2022/08/12 11:49:09;;;;;;;0.80;0.50;;;26.20;56.10;;;;;;5069025;28;20896;-84
2022/08/12 11:51:37;;;;;;;1.00;0.90;;;26.20;56.80;;;;;;5073155;28;20946;-84
2022/08/12 11:54:07;;;;;;;0.57;0.50;;;26.40;56.20;;;;;;5074433;28;20597;-85
2022/08/12 11:56:34;;;;;;;0.83;0.50;;;26.20;54.90;;;;;;5077495;28;20955;-84
2022/08/12 11:59:01;;;;;;;0.77;0.50;;;25.90;54.50;;;;;;5080688;28;20472;-85
2022/08/12 12:01:28;;;;;;;0.60;0.50;;;25.70;54.10;;;;;;5070525;28;20467;-85
2022/08/12 12:03:55;;;;;;;0.97;0.80;;;26.00;54.50;;;;;;5072560;28;21041;-88
2022/08/12 12:06:26;;;;;;;0.50;0.40;;;25.90;55.90;;;;;;5071556;28;20882;-86
2022/08/12 12:08:54;;;;;;;0.70;0.57;;;26.00;56.00;;;;;;5064335;28;20566;-84
2022/08/12 12:11:23;;;;;;;0.60;0.50;;;26.20;56.40;;;;;;5071782;28;22159;-87
2022/08/12 12:13:50;;;;;;;0.80;0.70;;;26.30;55.60;;;;;;5070143;28;20543;-86
2022/08/12 12:16:17;;;;;;;2.57;0.53;;;26.50;53.50;;;;;;5073436;28;20509;-85
2022/08/12 12:18:45;;;;;;;0.50;0.50;;;26.50;54.10;;;;;;5067008;28;20468;-86
2022/08/12 12:21:12;;;;;;;1.23;0.50;;;26.60;53.30;;;;;;5071182;28;20466;-85
2022/08/12 12:23:39;;;;;;;0.87;0.40;;;26.00;53.80;;;;;;5071828;28;20512;-86
2022/08/12 12:26:08;;;;;;;0.50;0.43;;;25.90;54.10;;;;;;5072062;28;20475;-87
2022/08/12 12:28:40;;;;;;;0.50;0.40;;;25.70;55.80;;;;;;5075230;28;20478;-84
2022/08/12 12:31:07;;;;;;;0.67;0.57;;;25.30;55.50;;;;;;5076364;28;20470;-86
2022/08/12 12:33:34;;;;;;;0.60;0.50;;;25.10;56.40;;;;;;5067600;28;20463;-85
2022/08/12 12:36:01;;;;;;;0.60;0.40;;;25.10;57.90;;;;;;5068921;28;21001;-86
2022/08/12 12:38:28;;;;;;;0.50;0.50;;;25.20;57.00;;;;;;5069029;28;20470;-88
2022/08/12 12:40:56;;;;;;;0.60;0.60;;;25.30;56.90;;;;;;5071373;28;20464;-86
2022/08/12 12:43:22;;;;;;;0.40;0.40;;;25.20;59.00;;;;;;5074964;28;20488;-87
2022/08/12 12:45:51;;;;;;;0.60;0.60;;;25.20;57.30;;;;;;5081560;28;20469;-85
2022/08/12 12:48:20;;;;;;;1.23;0.90;;;25.10;58.60;;;;;;5069705;28;20557;-85
2022/08/12 12:51:14;;;;;;;1.83;0.73;;;25.10;57.50;;;;;;5073131;28;20602;-85
2022/08/12 12:53:37;;;;;;;0.67;0.60;;;25.00;57.60;;;;;;5070652;28;20465;-85
2022/08/12 12:56:05;;;;;;;0.50;0.50;;;24.90;57.60;;;;;;5073730;28;20475;-85
2022/08/12 12:58:32;;;;;;;1.27;0.53;;;24.60;57.90;;;;;;5073173;28;21194;-88
2022/08/12 13:01:01;;;;;;;0.60;0.50;;;24.60;57.60;;;;;;5072977;28;20464;-85
2022/08/12 13:03:29;;;;;;;2.30;0.60;;;24.50;57.70;;;;;;5074012;28;20483;-86
2022/08/12 13:05:59;;;;;;;0.90;0.90;;;24.60;59.10;;;;;;5064540;28;20455;-86
2022/08/12 13:08:29;;;;;;;0.70;0.60;;;24.20;58.70;;;;;;5069557;28;21588;-84
2022/08/12 13:10:59;;;;;;;2.93;0.60;;;24.30;59.70;;;;;;5068357;28;20466;-85
2022/08/12 13:13:28;;;;;;;0.40;0.30;;;24.10;59.90;;;;;;5071994;28;20463;-84
2022/08/12 13:16:00;;;;;;;0.90;0.53;;;24.30;61.10;;;;;;5066311;28;20456;-85
2022/08/12 13:18:35;;;;;;;0.80;0.47;;;24.20;60.70;;;;;;5067047;28;20460;-85
2022/08/12 13:21:02;;;;;;;1.20;0.73;;;24.10;62.10;;;;;;5067027;28;20462;-85
2022/08/12 13:23:30;;;;;;;0.80;0.80;;;24.00;63.40;;;;;;5066928;28;21235;-85
2022/08/12 13:25:57;;;;;;;0.50;0.40;;;24.10;63.70;;;;;;5070803;28;20539;-85
2022/08/12 13:28:27;;;;;;;0.97;0.47;;;24.00;64.10;;;;;;5070862;28;20839;-85
2022/08/12 13:30:56;;;;;;;0.83;0.70;;;24.00;66.10;;;;;;5068293;28;20557;-88
2022/08/12 13:33:25;;;;;;;0.73;0.60;;;24.40;67.00;;;;;;5067391;28;20467;-90
2022/08/12 13:35:54;;;;;;;0.90;0.70;;;24.60;66.40;;;;;;5068155;28;20463;-86
2022/08/12 13:38:33;;;;;;;0.50;0.47;;;25.10;66.70;;;;;;5070482;28;20990;-88
2022/08/12 13:41:00;;;;;;;4.60;0.60;;;25.60;64.10;;;;;;5067364;28;20498;-85
2022/08/12 13:43:27;;;;;;;0.80;0.80;;;25.70;63.80;;;;;;5067883;28;21279;-84
2022/08/12 13:45:54;;;;;;;3.00;1.10;;;26.10;63.60;;;;;;5063727;28;20533;-87
2022/08/12 13:48:22;;;;;;;1.07;0.60;;;25.70;63.10;;;;;;5068710;28;20479;-89
2022/08/12 13:50:49;;;;;;;0.77;0.60;;;25.60;62.90;;;;;;5066354;28;21352;-85
2022/08/12 13:53:19;;;;;;;0.70;0.70;;;25.50;62.50;;;;;;5066478;28;20549;-87
2022/08/12 13:55:48;;;;;;;1.23;0.70;;;25.70;61.90;;;;;;5068898;28;20902;-85
2022/08/12 13:58:17;;;;;;;0.67;0.50;;;26.00;61.30;;;;;;5068684;28;20460;-86
2022/08/12 14:00:45;;;;;;;0.60;0.50;;;26.30;60.20;;;;;;5064498;28;20504;-85
2022/08/12 14:03:13;;;;;;;0.70;0.60;;;26.70;58.90;;;;;;5067679;28;20482;-85
2022/08/12 14:05:40;;;;;;;0.50;0.50;;;26.90;58.50;;;;;;5066714;28;20550;-85
2022/08/12 14:08:09;;;;;;;1.63;0.60;;;26.60;59.10;;;;;;5073440;28;20547;-85
2022/08/12 14:10:39;;;;;;;0.50;0.50;;;26.60;58.20;;;;;;5086876;28;20457;-85
2022/08/12 14:13:10;;;;;;;5.93;0.60;;;26.70;57.30;;;;;;5071831;28;20564;-85
2022/08/12 14:15:39;;;;;;;0.70;0.50;;;26.30;56.70;;;;;;5069079;28;20559;-87
2022/08/12 14:18:15;;;;;;;0.50;0.50;;;26.30;57.30;;;;;;5069675;28;20462;-85
2022/08/12 14:20:44;;;;;;;0.53;0.53;;;26.20;55.70;;;;;;5071838;28;20466;-89
2022/08/12 14:23:12;;;;;;;1.23;0.60;;;26.20;56.30;;;;;;5076113;28;20473;-85
2022/08/12 14:25:42;;;;;;;0.50;0.40;;;26.30;57.40;;;;;;5070040;28;20458;-86
2022/08/12 14:28:11;;;;;;;0.60;0.50;;;26.40;54.90;;;;;;5076937;28;20474;-88
2022/08/12 14:30:50;;;;;;;0.80;0.67;;;26.30;55.50;;;;;;5073353;28;20455;-85
2022/08/12 14:33:17;;;;;;;1.57;0.80;;;26.20;56.70;;;;;;5074115;28;20525;-85
2022/08/12 14:35:44;;;;;;;0.60;0.60;;;26.20;57.00;;;;;;5073697;28;20472;-86
2022/08/12 14:38:16;;;;;;;0.60;0.50;;;26.20;56.20;;;;;;5080898;28;20455;-85
2022/08/12 14:40:45;;;;;;;0.50;0.50;;;26.30;54.90;;;;;;5077792;28;20545;-85
2022/08/12 14:43:13;;;;;;;0.77;0.77;;;26.30;53.70;;;;;;5072082;28;20555;-85
2022/08/12 14:45:41;;;;;;;0.80;0.40;;;26.20;54.40;;;;;;5077916;28;20542;-88
2022/08/12 14:48:08;;;;;;;0.50;0.50;;;26.20;53.70;;;;;;5072298;28;20978;-85
2022/08/12 14:50:35;;;;;;;0.93;0.40;;;26.20;53.30;;;;;;5069088;28;20546;-86